Time;durP1;ratioP1;P1;durP2;ratioP2;P2;SDS_P1;SDS_P2;PMS_P1;PMS_P2;Temp;Humidity;BMP_temperature;BMP_pressure;BME280_temperature;BME280_humidity;BME280_pressure;Samples;Min_cycle;Max_cycle;Signal;HPM_P1;HPM_P2
2023/03/11 00:00:29;;;;;;;5.13;0.80;;;;;;;-0.26;100.00;100721.75;5072186;28;20080;-75
2023/03/11 00:02:59;;;;;;;4.60;1.45;;;;;;;-0.27;99.72;100722.88;5072113;28;20048;-75
2023/03/11 00:05:37;;;;;;;1.98;0.80;;;;;;;-0.27;99.53;100723.63;5071761;28;20116;-75
2023/03/11 00:08:06;;;;;;;7.07;1.15;;;;;;;-0.27;99.91;100726.25;5072302;28;20037;-75
2023/03/11 00:10:38;;;;;;;3.13;1.00;;;;;;;-0.27;100.00;100730.72;5072219;28;20537;-74
2023/03/11 00:13:05;;;;;;;7.88;1.60;;;;;;;-0.30;100.00;100734.81;5071825;28;20103;-74
2023/03/11 00:15:32;;;;;;;4.43;1.20;;;;;;;-0.30;100.00;100739.31;5072210;28;20052;-75
2023/03/11 00:17:59;;;;;;;1.05;0.90;;;;;;;-0.32;100.00;100737.06;5071958;28;20068;-75
2023/03/11 00:20:37;;;;;;;6.45;1.10;;;;;;;-0.34;100.00;100744.50;5072071;28;20044;-74
2023/03/11 00:23:06;;;;;;;4.88;1.42;;;;;;;-0.35;100.00;100750.84;5070547;28;20514;-74
2023/03/11 00:25:35;;;;;;;6.95;2.05;;;;;;;-0.34;100.00;100747.88;5070314;28;20056;-75
2023/03/11 00:28:01;;;;;;;5.63;1.02;;;;;;;-0.32;100.00;100749.38;5071396;28;20503;-75
2023/03/11 00:30:28;;;;;;;3.25;1.00;;;;;;;-0.31;100.00;100748.25;5071569;28;20525;-75
2023/03/11 00:32:56;;;;;;;7.57;1.25;;;;;;;-0.31;100.00;100748.25;5070110;28;20107;-75
2023/03/11 00:35:26;;;;;;;4.80;1.60;;;;;;;-0.30;99.64;100753.13;5071050;28;20053;-75
2023/03/11 00:38:01;;;;;;;2.72;1.20;;;;;;;-0.31;99.60;100753.50;5070528;28;20049;-74
2023/03/11 00:40:30;;;;;;;5.28;1.20;;;;;;;-0.32;99.63;100757.22;5069747;28;20060;-74
2023/03/11 00:42:57;;;;;;;2.10;0.90;;;;;;;-0.32;99.56;100767.69;5069404;28;20513;-74
2023/03/11 00:45:25;;;;;;;1.52;0.77;;;;;;;-0.30;99.67;100775.94;5070555;28;20049;-74
2023/03/11 00:47:53;;;;;;;4.22;1.08;;;;;;;-0.30;99.76;100776.69;5071472;28;20083;-74
2023/03/11 00:50:25;;;;;;;2.63;0.77;;;;;;;-0.30;99.34;100773.31;5071914;28;20036;-74
2023/03/11 00:52:52;;;;;;;3.72;1.27;;;;;;;-0.29;98.70;100780.03;5070317;28;20056;-74
2023/03/11 00:55:23;;;;;;;5.47;1.38;;;;;;;-0.26;98.49;100784.56;5071248;28;20045;-75
2023/03/11 00:57:55;;;;;;;5.25;1.40;;;;;;;-0.27;97.72;100791.66;5070227;28;20053;-75
2023/03/11 01:00:25;;;;;;;3.92;1.40;;;;;;;-0.26;97.27;100790.53;5053835;28;20533;-75
2023/03/11 01:02:54;;;;;;;5.18;1.52;;;;;;;-0.26;97.46;100785.31;5071463;28;20477;-75
2023/03/11 01:05:25;;;;;;;4.43;1.10;;;;;;;-0.24;96.81;100785.69;5071453;28;20508;-75
2023/03/11 01:07:52;;;;;;;3.70;1.10;;;;;;;-0.23;96.73;100804.75;5071573;28;20059;-75
2023/03/11 01:10:19;;;;;;;6.32;1.00;;;;;;;-0.23;96.54;100795.03;5069385;28;20040;-75
2023/03/11 01:12:45;;;;;;;1.60;0.80;;;;;;;-0.22;96.23;100795.78;5069374;28;20562;-75
2023/03/11 01:15:25;;;;;;;3.70;0.80;;;;;;;-0.21;96.48;100794.69;5069781;28;20160;-75
2023/03/11 01:17:52;;;;;;;7.25;1.27;;;;;;;-0.20;96.35;100802.16;5053176;28;20063;-75
2023/03/11 01:20:19;;;;;;;6.93;1.00;;;;;;;-0.21;95.79;100807.75;5071061;28;20488;-74
2023/03/11 01:22:45;;;;;;;3.05;0.90;;;;;;;-0.22;95.80;100809.63;5071471;28;20055;-74
2023/03/11 01:25:13;;;;;;;4.05;1.30;;;;;;;-0.21;95.38;100810.38;5069064;28;20063;-75
2023/03/11 01:27:41;;;;;;;6.13;1.02;;;;;;;-0.21;95.32;100810.38;5071483;28;20045;-74
2023/03/11 01:30:12;;;;;;;3.13;0.90;;;;;;;-0.20;95.48;100817.13;5069636;28;20053;-74
2023/03/11 01:32:38;;;;;;;3.92;1.23;;;;;;;-0.19;95.59;100813.38;5071437;28;20041;-74
2023/03/11 01:35:05;;;;;;;3.95;0.88;;;;;;;-0.20;95.57;100819.72;5069320;28;20548;-74
2023/03/11 01:37:32;;;;;;;4.38;0.90;;;;;;;-0.20;95.53;100817.13;5071215;28;20469;-74
2023/03/11 01:39:59;;;;;;;2.53;1.05;;;;;;;-0.21;95.40;100821.59;5068948;28;20052;-73
2023/03/11 01:42:25;;;;;;;2.55;0.65;;;;;;;-0.20;95.28;100820.50;5070919;28;20079;-74
2023/03/11 01:44:52;;;;;;;3.60;1.00;;;;;;;-0.20;95.69;100823.09;5069358;28;20045;-73
2023/03/11 01:47:39;;;;;;;5.43;0.95;;;;;;;-0.23;95.41;100820.47;5069244;28;20052;-73
2023/03/11 01:50:11;;;;;;;6.88;1.27;;;;;;;-0.24;95.37;100818.94;5069440;28;20048;-73
2023/03/11 01:52:40;;;;;;;3.10;0.80;;;;;;;-0.24;95.63;100819.72;5071410;28;20124;-74
2023/03/11 01:55:07;;;;;;;2.15;0.82;;;;;;;-0.23;95.59;100815.22;5072494;28;20048;-74
2023/03/11 01:57:37;;;;;;;3.17;1.20;;;;;;;-0.23;95.44;100817.84;5073149;28;20049;-74
2023/03/11 02:00:08;;;;;;;3.72;1.20;;;;;;;-0.25;95.78;100817.44;5074157;28;20044;-74
2023/03/11 02:02:53;;;;;;;2.95;1.13;;;;;;;-0.27;95.85;100827.53;5074040;28;20053;-73
2023/03/11 02:05:23;;;;;;;1.98;0.82;;;;;;;-0.28;95.76;100829.38;5072785;28;20103;-73
2023/03/11 02:07:53;;;;;;;1.20;0.70;;;;;;;-0.31;95.88;100824.88;5072498;28;20049;-73
2023/03/11 02:10:22;;;;;;;;;;;;;;;-0.31;96.13;100832.72;5073003;28;20045;-74
2023/03/11 02:12:50;;;;;;;3.13;0.75;;;;;;;-0.30;96.19;100825.63;5074343;28;19929;-73
2023/03/11 02:15:23;;;;;;;4.13;1.60;;;;;;;-0.32;96.33;100825.25;5074099;28;20644;-74
2023/03/11 02:17:51;;;;;;;2.10;1.00;;;;;;;-0.34;96.47;100826.34;5072638;28;20073;-74
2023/03/11 02:20:32;;;;;;;4.70;0.88;;;;;;;-0.34;96.69;100830.84;5072290;28;20537;-73
2023/03/11 02:23:01;;;;;;;0.90;0.80;;;;;;;-0.36;96.47;100833.81;5073635;28;20072;-74
2023/03/11 02:25:56;;;;;;;7.25;0.95;;;;;;;-0.38;96.45;100836.03;5055606;28;20142;-74
2023/03/11 02:28:25;;;;;;;2.05;0.40;;;;;;;-0.37;96.67;100834.94;5071962;28;20045;-73
2023/03/11 02:30:55;;;;;;;1.90;0.80;;;;;;;-0.37;96.89;100840.16;5055391;28;20045;-74
2023/03/11 02:33:28;;;;;;;3.80;0.82;;;;;;;-0.39;96.73;100842.38;5072025;28;20394;-74
2023/03/11 02:35:56;;;;;;;3.05;1.08;;;;;;;-0.38;96.73;100845.75;5071927;28;20045;-73
2023/03/11 02:38:23;;;;;;;1.40;0.60;;;;;;;-0.38;96.76;100843.88;5071782;28;20135;-74
2023/03/11 02:41:00;;;;;;;6.55;1.33;;;;;;;-0.38;96.44;100840.53;5072474;28;20049;-74
2023/03/11 02:43:42;;;;;;;1.58;0.60;;;;;;;-0.39;96.93;100845.00;5071906;28;20379;-74
2023/03/11 02:46:12;;;;;;;2.65;0.70;;;;;;;-0.40;96.46;100837.53;5071967;28;20517;-74
2023/03/11 02:48:40;;;;;;;3.42;0.90;;;;;;;-0.42;96.47;100837.91;5073595;28;20072;-74
2023/03/11 02:51:07;;;;;;;1.13;0.57;;;;;;;-0.44;96.58;100834.91;5073068;28;20481;-74
2023/03/11 02:53:43;;;;;;;2.30;0.70;;;;;;;-0.46;96.74;100831.88;5072582;28;20088;-74
2023/03/11 02:56:10;;;;;;;1.38;0.60;;;;;;;-0.48;96.38;100830.75;5072277;28;20160;-74
2023/03/11 02:58:36;;;;;;;1.95;0.80;;;;;;;-0.52;96.68;100841.19;5073776;28;20041;-74
2023/03/11 03:01:03;;;;;;;2.92;0.70;;;;;;;-0.56;96.63;100845.63;5071396;28;20434;-73
2023/03/11 03:03:30;;;;;;;3.70;0.65;;;;;;;-0.60;96.77;100850.06;5071636;28;20049;-74
2023/03/11 03:05:56;;;;;;;1.23;1.00;;;;;;;-0.64;97.11;100846.66;5070549;28;20119;-73
2023/03/11 03:08:23;;;;;;;9.32;1.20;;;;;;;-0.68;97.09;100849.25;5071735;28;20107;-73
2023/03/11 03:10:49;;;;;;;5.32;1.20;;;;;;;-0.70;96.76;100846.22;5071901;28;20486;-73
2023/03/11 03:13:16;;;;;;;6.70;0.88;;;;;;;-0.73;97.03;100846.94;5071814;28;20088;-73
2023/03/11 03:15:43;;;;;;;1.77;1.10;;;;;;;-0.74;97.21;100850.69;5071465;28;20099;-73
2023/03/11 03:18:09;;;;;;;1.88;1.08;;;;;;;-0.76;96.89;100858.13;5072776;28;20513;-73
2023/03/11 03:20:36;;;;;;;0.95;0.82;;;;;;;-0.78;96.45;100864.81;5072716;28;20103;-73
2023/03/11 03:23:03;;;;;;;4.75;0.75;;;;;;;-0.82;96.65;100870.03;5072910;28;20542;-73
2023/03/11 03:25:31;;;;;;;2.15;1.00;;;;;;;-0.83;96.39;100871.16;5071262;28;20048;-73
2023/03/11 03:28:02;;;;;;;2.45;0.63;;;;;;;-0.88;96.40;100870.72;5072727;28;20177;-73
2023/03/11 03:30:31;;;;;;;1.33;0.80;;;;;;;-0.90;96.47;100880.78;5071258;28;20053;-73
2023/03/11 03:32:58;;;;;;;0.75;0.70;;;;;;;-0.94;96.22;100874.75;5054538;28;20496;-73
2023/03/11 03:35:25;;;;;;;1.90;0.90;;;;;;;-0.98;96.66;100874.72;5070494;28;20156;-73
2023/03/11 03:38:00;;;;;;;1.33;0.73;;;;;;;-1.00;96.92;100884.78;5071399;28;20103;-73
2023/03/11 03:40:27;;;;;;;2.40;0.93;;;;;;;-1.02;96.66;100887.00;5071099;28;20532;-73
2023/03/11 03:42:56;;;;;;;2.00;0.80;;;;;;;-1.04;96.42;100889.94;5070935;28;20119;-73
2023/03/11 03:45:23;;;;;;;2.50;0.85;;;;;;;-1.04;96.74;100894.44;5071072;28;20079;-74
2023/03/11 03:47:51;;;;;;;8.10;0.60;;;;;;;-1.08;96.62;100902.22;5071025;28;20053;-72
2023/03/11 03:50:20;;;;;;;1.35;0.85;;;;;;;-1.07;96.28;100905.59;5070646;28;20135;-72
2023/03/11 03:52:49;;;;;;;3.00;0.82;;;;;;;-1.08;96.24;100910.06;5071137;28;20080;-73
2023/03/11 03:55:15;;;;;;;9.98;0.80;;;;;;;-1.09;96.51;100899.97;5070963;28;20045;-73
2023/03/11 03:57:42;;;;;;;4.00;1.02;;;;;;;-1.11;96.60;100912.63;5070974;28;20132;-73
2023/03/11 04:00:12;;;;;;;0.93;0.70;;;;;;;-1.12;96.20;100916.34;5071002;28;20099;-74
2023/03/11 04:02:44;;;;;;;0.93;0.82;;;;;;;-1.12;96.36;100914.50;5071013;28;20506;-74
2023/03/11 04:05:20;;;;;;;1.30;0.73;;;;;;;-1.13;96.53;100920.06;5070548;28;20055;-73
2023/03/11 04:07:47;;;;;;;4.57;0.63;;;;;;;-1.12;96.29;100921.56;5070738;28;20048;-73
2023/03/11 04:10:14;;;;;;;8.30;0.93;;;;;;;-1.12;95.79;100927.56;5070514;28;20460;-73
2023/03/11 04:12:41;;;;;;;1.80;0.85;;;;;;;-1.12;96.30;100929.41;5070780;28;20549;-73
2023/03/11 04:15:09;;;;;;;2.08;0.70;;;;;;;-1.13;95.86;100930.53;5070651;28;20053;-72
2023/03/11 04:17:37;;;;;;;2.45;0.80;;;;;;;-1.14;95.71;100932.38;5069875;28;20095;-72
2023/03/11 04:20:09;;;;;;;9.40;0.80;;;;;;;-1.14;95.84;100929.75;5070115;28;20516;-72
2023/03/11 04:22:35;;;;;;;2.35;0.65;;;;;;;-1.16;95.65;100931.22;5071133;28;20451;-72
2023/03/11 04:25:03;;;;;;;3.88;0.90;;;;;;;-1.18;95.39;100931.56;5070395;28;20055;-73
2023/03/11 04:27:31;;;;;;;3.63;0.85;;;;;;;-1.21;95.62;100936.78;5070604;28;20044;-72
2023/03/11 04:29:58;;;;;;;5.38;0.80;;;;;;;-1.22;95.11;100936.03;5070587;28;20059;-73
2023/03/11 04:32:25;;;;;;;0.95;0.82;;;;;;;-1.24;95.60;100935.63;5070141;28;20159;-72
2023/03/11 04:34:52;;;;;;;4.63;1.10;;;;;;;-1.27;95.49;100933.72;5071399;28;20117;-73
2023/03/11 04:37:18;;;;;;;1.15;0.70;;;;;;;-1.28;95.31;100937.44;5071838;28;20129;-73
2023/03/11 04:39:45;;;;;;;0.93;0.80;;;;;;;-1.33;95.72;100935.13;5070322;28;20045;-72
2023/03/11 04:42:12;;;;;;;7.07;1.25;;;;;;;-1.35;95.60;100938.09;5070391;28;20049;-72
2023/03/11 04:44:41;;;;;;;1.35;0.82;;;;;;;-1.36;95.33;100951.50;5070600;28;20467;-72
2023/03/11 04:47:08;;;;;;;4.00;0.93;;;;;;;-1.37;95.57;100947.38;5071259;28;20486;-72
2023/03/11 04:49:35;;;;;;;1.00;0.80;;;;;;;-1.37;95.39;100947.38;5071946;28;20041;-72
2023/03/11 04:52:02;;;;;;;2.08;0.60;;;;;;;-1.40;95.56;100951.47;5071734;28;20052;-73
2023/03/11 04:54:29;;;;;;;3.08;0.80;;;;;;;-1.41;95.31;100954.41;5070349;28;20045;-72
2023/03/11 04:56:56;;;;;;;17.77;1.33;;;;;;;-1.42;95.57;100953.66;5070082;28;20049;-72
2023/03/11 04:59:23;;;;;;;1.58;0.70;;;;;;;-1.44;95.12;100963.72;5069793;28;20610;-74
2023/03/11 05:01:50;;;;;;;1.75;0.68;;;;;;;-1.47;95.57;100961.03;5069542;28;20462;-74
2023/03/11 05:04:17;;;;;;;1.58;0.70;;;;;;;-1.48;95.64;100969.97;5069782;28;20051;-74
2023/03/11 05:06:44;;;;;;;1.83;0.57;;;;;;;-1.51;95.55;100963.59;5069746;28;20045;-74
2023/03/11 05:09:12;;;;;;;2.38;1.00;;;;;;;-1.51;95.67;100968.81;5069926;28;20490;-73
2023/03/11 05:11:39;;;;;;;5.85;0.80;;;;;;;-1.54;95.38;100960.94;5070164;28;20525;-73
2023/03/11 05:14:06;;;;;;;2.45;0.75;;;;;;;-1.57;95.69;100959.03;5071354;28;20045;-72
2023/03/11 05:16:32;;;;;;;3.08;1.00;;;;;;;-1.59;96.05;100956.78;5069021;28;20515;-73
2023/03/11 05:18:59;;;;;;;0.70;0.70;;;;;;;-1.64;95.92;100951.88;5069663;28;20048;-73
2023/03/11 05:21:26;;;;;;;1.90;0.68;;;;;;;-1.65;96.03;100958.19;5069185;28;20144;-72
2023/03/11 05:23:53;;;;;;;1.10;0.73;;;;;;;-1.67;95.97;100957.78;5071187;28;20041;-75
2023/03/11 05:26:20;;;;;;;3.05;0.82;;;;;;;-1.70;96.16;100963.72;5069990;28;20582;-74
2023/03/11 05:28:46;;;;;;;2.35;0.60;;;;;;;-1.71;96.42;100970.78;5071015;28;20156;-74
2023/03/11 05:31:13;;;;;;;1.25;0.80;;;;;;;-1.72;96.08;100973.75;5072621;28;20084;-74
2023/03/11 05:33:40;;;;;;;3.78;0.90;;;;;;;-1.73;96.32;100974.84;5073214;28;20053;-73
2023/03/11 05:36:10;;;;;;;1.92;0.75;;;;;;;-1.75;96.12;100977.06;5073295;28;20051;-73
2023/03/11 05:38:40;;;;;;;1.17;0.90;;;;;;;-1.78;95.83;100978.50;5073488;28;20056;-73
2023/03/11 05:41:07;;;;;;;4.75;0.90;;;;;;;-1.80;95.62;100988.53;5073457;28;20049;-73
2023/03/11 05:43:34;;;;;;;0.57;0.57;;;;;;;-1.82;95.49;100982.16;5073337;28;20041;-74
2023/03/11 05:46:01;;;;;;;3.90;0.88;;;;;;;-1.83;95.56;100993.69;5072722;28;20049;-74
2023/03/11 05:48:28;;;;;;;3.17;0.90;;;;;;;-1.87;96.07;100993.63;5073103;28;20061;-74
2023/03/11 05:50:55;;;;;;;1.30;0.75;;;;;;;-1.88;95.83;100993.97;5073252;28;20055;-74
2023/03/11 05:53:22;;;;;;;0.82;0.82;;;;;;;-1.90;95.80;100990.97;5073186;28;20049;-74
2023/03/11 05:55:59;;;;;;;2.65;0.85;;;;;;;-1.91;95.81;100992.81;5073116;28;20051;-73
2023/03/11 05:58:27;;;;;;;1.63;0.90;;;;;;;-1.93;95.79;100997.63;5074585;28;20041;-72
2023/03/11 06:00:54;;;;;;;1.15;0.60;;;;;;;-1.92;96.18;100998.38;5072773;28;20084;-72
2023/03/11 06:03:22;;;;;;;1.42;0.65;;;;;;;-1.94;96.28;101005.81;5073162;28;20472;-73
2023/03/11 06:05:49;;;;;;;1.77;1.08;;;;;;;-1.96;96.14;101006.16;5072699;28;20037;-75
2023/03/11 06:08:18;;;;;;;4.57;0.80;;;;;;;-1.96;95.98;101005.41;5074217;28;20045;-75
2023/03/11 06:10:44;;;;;;;4.38;1.00;;;;;;;-1.95;96.19;101009.50;5072861;28;20045;-74
2023/03/11 06:13:15;;;;;;;1.45;1.05;;;;;;;-1.97;95.73;101015.06;5072708;28;20053;-73
2023/03/11 06:15:47;;;;;;;0.68;0.68;;;;;;;-1.97;95.56;101015.06;5072254;28;20041;-73
2023/03/11 06:18:14;;;;;;;2.33;0.85;;;;;;;-1.96;95.50;101015.84;5072369;28;20103;-75
2023/03/11 06:20:40;;;;;;;3.13;0.70;;;;;;;-1.95;95.27;101030.38;5072776;28;20057;-74
2023/03/11 06:23:08;;;;;;;6.82;0.70;;;;;;;-1.95;95.17;101020.72;5074267;28;20041;-74
2023/03/11 06:25:35;;;;;;;1.58;0.70;;;;;;;-1.96;95.14;101026.28;5072512;28;20084;-75
2023/03/11 06:28:02;;;;;;;4.63;0.90;;;;;;;-1.96;95.47;101028.88;5072313;28;20095;-75
2023/03/11 06:30:29;;;;;;;1.20;0.60;;;;;;;-1.94;95.79;101034.50;5071682;28;20526;-75
2023/03/11 06:33:05;;;;;;;1.88;0.85;;;;;;;-1.93;95.91;101043.84;5072023;28;20426;-75
2023/03/11 06:35:32;;;;;;;1.23;1.02;;;;;;;-1.91;95.52;101047.63;5071500;28;20073;-75
2023/03/11 06:37:59;;;;;;;3.33;0.90;;;;;;;-1.91;96.05;101052.84;5072142;28;20056;-75
2023/03/11 06:40:26;;;;;;;7.85;1.10;;;;;;;-1.90;96.26;101054.34;5071045;28;20055;-75
2023/03/11 06:42:52;;;;;;;2.13;0.80;;;;;;;-1.89;96.23;101058.47;5071621;28;20056;-75
2023/03/11 06:45:21;;;;;;;1.45;1.08;;;;;;;-1.89;96.57;101050.63;5072011;28;20090;-74
2023/03/11 06:47:48;;;;;;;0.82;0.82;;;;;;;-1.87;96.79;101050.28;5071928;28;20124;-75
2023/03/11 06:50:16;;;;;;;2.97;1.10;;;;;;;-1.90;96.44;101058.81;5071957;28;20156;-74
2023/03/11 06:52:42;;;;;;;6.63;1.40;;;;;;;-1.88;96.42;101051.38;5072026;28;20140;-74
2023/03/11 06:55:09;;;;;;;1.73;1.63;;;;;;;-1.85;97.16;101054.06;5071898;28;20049;-75
2023/03/11 06:57:36;;;;;;;1.67;1.58;;;;;;;-1.84;96.58;101055.56;5071691;28;20053;-75
2023/03/11 07:00:11;;;;;;;3.65;2.08;;;;;;;-1.81;96.83;101061.97;5072499;28;20052;-74
2023/03/11 07:02:38;;;;;;;2.50;2.17;;;;;;;-1.23;97.25;101059.91;5072256;28;20052;-75
2023/03/11 07:05:06;;;;;;;2.67;1.80;;;;;;;-0.54;95.91;101064.94;5072562;28;20107;-75
2023/03/11 07:07:33;;;;;;;5.35;1.80;;;;;;;-0.64;94.62;101068.91;5071698;28;20049;-75
2023/03/11 07:10:01;;;;;;;2.10;1.40;;;;;;;-0.87;94.89;101082.06;5072137;28;20053;-75
2023/03/11 07:12:28;;;;;;;1.90;1.05;;;;;;;-0.94;95.48;101089.06;5071372;28;20045;-75
2023/03/11 07:14:55;;;;;;;2.95;1.38;;;;;;;-0.92;95.35;101092.84;5072701;28;20099;-75
2023/03/11 07:17:22;;;;;;;1.88;1.10;;;;;;;-0.87;95.46;101094.41;5071685;28;20128;-76
2023/03/11 07:19:51;;;;;;;3.38;1.10;;;;;;;-0.83;95.04;101093.34;5072438;28;20041;-77
2023/03/11 07:22:17;;;;;;;0.55;0.55;;;;;;;-0.82;95.16;101100.06;5073631;28;20498;-76
2023/03/11 07:24:46;;;;;;;1.95;1.00;;;;;;;-0.79;94.98;101095.97;5074147;28;20049;-74
2023/03/11 07:27:12;;;;;;;1.27;1.00;;;;;;;-0.72;95.48;101099.44;5072973;28;20041;-75
2023/03/11 07:29:39;;;;;;;1.40;1.00;;;;;;;-0.63;95.63;101096.56;5073682;28;20049;-75
2023/03/11 07:32:07;;;;;;;1.95;1.05;;;;;;;-0.55;95.15;101106.03;5073925;28;20482;-75
2023/03/11 07:34:34;;;;;;;0.80;0.80;;;;;;;-0.45;95.28;101115.88;5071719;28;20085;-76
2023/03/11 07:37:00;;;;;;;1.58;1.05;;;;;;;-0.37;94.63;101112.22;5072336;28;20041;-76
2023/03/11 07:39:27;;;;;;;1.30;0.80;;;;;;;-0.30;94.57;101118.66;5073442;28;20045;-78
2023/03/11 07:41:53;;;;;;;6.15;1.60;;;;;;;-0.20;94.64;101115.41;5073216;28;20114;-77
2023/03/11 07:44:20;;;;;;;1.95;1.20;;;;;;;-0.10;94.52;101109.56;5073337;28;20045;-77
2023/03/11 07:46:46;;;;;;;2.22;1.27;;;;;;;-0.01;94.09;101107.41;5073883;28;20064;-77
2023/03/11 07:49:13;;;;;;;3.20;1.05;;;;;;;0.11;94.38;101106.41;5072429;28;20102;-79
2023/03/11 07:51:42;;;;;;;4.00;1.40;;;;;;;0.19;93.70;101121.81;5073644;28;20048;-77
2023/03/11 07:54:10;;;;;;;5.93;1.10;;;;;;;0.30;93.85;101116.69;5073297;28;20045;-78
2023/03/11 07:56:37;;;;;;;1.23;1.10;;;;;;;0.35;93.14;101126.84;5072902;28;20448;-76
2023/03/11 07:59:04;;;;;;;1.60;0.98;;;;;;;0.44;93.10;101123.91;5073236;28;20519;-77
2023/03/11 08:01:35;;;;;;;1.60;1.00;;;;;;;0.53;92.42;101127.75;5072060;28;20135;-76
2023/03/11 08:04:04;;;;;;;1.90;1.17;;;;;;;0.67;92.50;101124.50;5073553;28;20041;-75
2023/03/11 08:06:33;;;;;;;2.15;1.10;;;;;;;0.75;92.49;101135.81;5072724;28;20042;-75
2023/03/11 08:09:02;;;;;;;2.95;1.15;;;;;;;0.79;92.11;101136.59;5055607;28;20059;-76
2023/03/11 08:11:29;;;;;;;2.10;1.20;;;;;;;0.88;92.37;101144.88;5072161;28;20459;-76
2023/03/11 08:13:56;;;;;;;1.00;0.90;;;;;;;0.97;91.87;101142.72;5072243;28;20409;-79
2023/03/11 08:16:24;;;;;;;3.58;0.95;;;;;;;1.09;91.56;101146.91;5072878;28;20478;-77
2023/03/11 08:18:52;;;;;;;2.17;1.08;;;;;;;1.19;90.58;101143.63;5073270;28;20549;-77
2023/03/11 08:21:22;;;;;;;1.77;0.93;;;;;;;1.24;90.24;101146.63;5072624;28;20103;-77
2023/03/11 08:23:49;;;;;;;4.95;1.27;;;;;;;1.33;89.52;101143.69;5073010;28;20512;-77
2023/03/11 08:26:20;;;;;;;2.10;1.15;;;;;;;1.45;89.27;101145.25;5072418;28;20107;-79
2023/03/11 08:28:48;;;;;;;3.10;1.50;;;;;;;1.56;88.94;101152.06;5072939;28;20052;-76
2023/03/11 08:31:20;;;;;;;4.82;1.50;;;;;;;1.65;88.74;101157.72;5072735;28;20106;-76
2023/03/11 08:33:49;;;;;;;1.30;1.17;;;;;;;1.75;88.67;101155.53;5072786;28;20483;-76
2023/03/11 08:36:17;;;;;;;2.53;1.20;;;;;;;1.84;88.54;101153.31;5072764;28;20132;-77
2023/03/11 08:38:43;;;;;;;2.65;0.90;;;;;;;1.91;87.67;101154.09;5072769;28;20049;-75
2023/03/11 08:41:10;;;;;;;4.25;0.90;;;;;;;2.05;87.42;101157.88;5072912;28;20494;-76
2023/03/11 08:43:37;;;;;;;1.85;0.88;;;;;;;2.17;87.07;101157.53;5073027;28;20506;-77
2023/03/11 08:46:08;;;;;;;5.70;0.80;;;;;;;2.24;86.61;101160.19;5073069;28;20040;-76
2023/03/11 08:48:36;;;;;;;1.35;0.82;;;;;;;2.33;85.78;101166.59;5073034;28;20110;-75
2023/03/11 08:51:10;;;;;;;3.08;0.80;;;;;;;2.38;85.48;101164.75;5072501;28;20060;-76
2023/03/11 08:53:38;;;;;;;0.98;0.60;;;;;;;2.43;85.41;101165.09;5072363;28;20041;-76
2023/03/11 08:56:04;;;;;;;1.88;0.68;;;;;;;2.46;83.10;101166.22;5072637;28;20132;-76
2023/03/11 08:58:31;;;;;;;5.05;0.57;;;;;;;2.56;83.63;101171.50;5072486;28;20045;-75
2023/03/11 09:00:58;;;;;;;5.30;0.85;;;;;;;2.69;83.79;101171.91;5072661;28;20041;-75
2023/03/11 09:03:24;;;;;;;2.28;0.70;;;;;;;2.74;82.38;101179.44;5073564;28;20502;-76
2023/03/11 09:05:59;;;;;;;3.85;0.60;;;;;;;2.83;82.94;101181.66;5079448;28;20045;-75
2023/03/11 09:08:26;;;;;;;2.10;0.60;;;;;;;2.91;80.47;101194.44;5078648;28;20139;-75
2023/03/11 09:10:53;;;;;;;2.92;0.50;;;;;;;2.95;78.71;101197.09;5079382;28;20425;-77
2023/03/11 09:13:19;;;;;;;0.70;0.55;;;;;;;3.09;79.69;101191.06;5078664;28;20486;-76
2023/03/11 09:15:50;;;;;;;1.00;0.90;;;;;;;3.16;79.23;101193.72;5079349;28;20103;-74
2023/03/11 09:18:17;;;;;;;0.95;0.70;;;;;;;3.12;80.18;101198.97;5078950;28;20111;-78
2023/03/11 09:20:44;;;;;;;2.40;0.90;;;;;;;3.11;79.21;101209.88;5079165;28;20517;-73
2023/03/11 09:23:14;;;;;;;2.92;0.70;;;;;;;3.06;79.34;101218.88;5078382;28;20045;-74
2023/03/11 09:25:41;;;;;;;2.97;0.93;;;;;;;3.06;78.61;101211.00;5079159;28;20049;-74
2023/03/11 09:28:07;;;;;;;0.60;0.60;;;;;;;3.13;79.35;101211.00;5077745;28;20052;-74
2023/03/11 09:30:34;;;;;;;3.03;0.77;;;;;;;3.21;79.44;101209.84;5078844;28;20560;-74
2023/03/11 09:33:01;;;;;;;4.15;0.90;;;;;;;3.27;79.02;101208.34;5079349;28;20107;-75
2023/03/11 09:35:27;;;;;;;1.92;0.60;;;;;;;3.30;78.38;101207.59;5078337;28;20410;-76
2023/03/11 09:37:54;;;;;;;0.90;0.55;;;;;;;3.35;77.50;101207.22;5078315;28;20470;-77
2023/03/11 09:40:22;;;;;;;4.53;0.73;;;;;;;3.37;78.00;101206.09;5078589;28;20490;-76
2023/03/11 09:42:57;;;;;;;2.53;0.70;;;;;;;3.37;76.76;101208.72;5077510;28;20391;-75
2023/03/11 09:45:28;;;;;;;2.92;0.90;;;;;;;3.43;77.13;101202.69;5078744;28;20049;-75
2023/03/11 09:48:27;;;;;;;1.65;0.80;;;;;;;3.64;77.43;101201.88;5079231;28;20532;-75
2023/03/11 09:51:02;;;;;;;2.75;0.70;;;;;;;3.80;75.58;101212.00;5079008;28;20045;-74
2023/03/11 09:53:37;;;;;;;1.48;1.08;;;;;;;3.93;76.22;101215.72;5077877;28;20044;-75
2023/03/11 09:56:07;;;;;;;3.33;0.90;;;;;;;4.06;75.45;101213.41;5078885;28;20048;-74
2023/03/11 09:58:45;;;;;;;1.67;0.80;;;;;;;4.20;75.23;101216.00;5079207;28;20399;-74
2023/03/11 10:01:32;;;;;;;2.05;0.82;;;;;;;4.20;73.96;101218.63;5078647;28;20049;-74
2023/03/11 10:04:11;;;;;;;2.22;0.80;;;;;;;4.31;74.56;101209.53;5078631;28;20482;-74
2023/03/11 10:06:40;;;;;;;4.68;1.20;;;;;;;4.46;75.43;101210.19;5078547;28;20252;-74
2023/03/11 10:09:32;;;;;;;6.32;0.98;;;;;;;4.64;74.32;101212.75;5078628;28;20500;-74
2023/03/11 10:12:05;;;;;;;2.08;0.90;;;;;;;4.59;71.71;101211.25;5078671;28;20048;-74
2023/03/11 10:14:41;;;;;;;2.42;0.80;;;;;;;4.55;72.90;101217.69;5077094;28;20048;-75
2023/03/11 10:17:32;;;;;;;2.97;0.77;;;;;;;4.64;73.86;101215.38;5075413;28;20099;-75
2023/03/11 10:20:11;;;;;;;2.63;0.80;;;;;;;4.71;73.97;101217.97;5075498;28;20049;-75
2023/03/11 10:22:44;;;;;;;10.00;1.55;;;;;;;4.70;71.93;101227.03;5074601;28;20484;-75
2023/03/11 10:25:18;;;;;;;2.72;0.98;;;;;;;4.69;71.86;101228.16;5075163;28;20120;-75
2023/03/11 10:28:04;;;;;;;1.13;0.70;;;;;;;4.81;71.38;101219.00;5075185;28;20041;-78
2023/03/11 10:30:39;;;;;;;4.63;0.80;;;;;;;4.99;70.40;101228.31;5074828;28;20059;-79
2023/03/11 10:33:27;;;;;;;4.65;1.10;;;;;;;5.09;71.88;101223.34;5074817;28;20076;-74
2023/03/11 10:35:59;;;;;;;10.43;0.80;;;;;;;5.14;71.24;101225.56;5074057;28;20100;-80
2023/03/11 10:38:47;;;;;;;1.27;0.75;;;;;;;5.07;71.39;101226.38;5074765;28;20044;-77
2023/03/11 10:41:30;;;;;;;1.50;0.80;;;;;;;5.15;71.43;101224.44;5074747;28;20045;-76
2023/03/11 10:44:25;;;;;;;16.40;1.30;;;;;;;5.18;70.46;101223.66;5074949;28;20053;-76
2023/03/11 10:46:51;;;;;;;3.33;0.70;;;;;;;5.13;69.53;101218.78;5075057;28;20041;-76
2023/03/11 10:49:17;;;;;;;2.97;0.98;;;;;;;5.19;68.32;101222.50;5073975;28;20045;-76
2023/03/11 10:51:47;;;;;;;1.10;0.85;;;;;;;5.24;68.71;101227.34;5073110;28;20077;-76
2023/03/11 10:54:29;;;;;;;3.70;1.10;;;;;;;5.34;68.83;101223.88;5074307;28;20045;-77
2023/03/11 10:56:57;;;;;;;;;;;;;;;5.49;70.13;101217.31;5074673;28;20040;-75
2023/03/11 10:59:30;;;;;;;1.42;0.73;;;;;;;5.60;68.55;101225.13;5074019;28;19924;-76
2023/03/11 11:02:00;;;;;;;5.72;1.20;;;;;;;5.67;68.42;101219.78;5075172;28;20519;-77
2023/03/11 11:04:35;;;;;;;1.70;1.08;;;;;;;5.65;68.65;101222.06;5073598;28;20041;-74
2023/03/11 11:07:33;;;;;;;3.25;1.40;;;;;;;5.73;68.99;101222.72;5073745;28;20049;-76
2023/03/11 11:10:23;;;;;;;2.97;0.95;;;;;;;5.83;67.79;101222.63;5074079;28;20055;-74
2023/03/11 11:12:57;;;;;;;4.60;1.65;;;;;;;5.80;66.26;101235.88;5074236;28;20041;-76
2023/03/11 11:15:32;;;;;;;2.47;1.15;;;;;;;5.81;66.21;101234.72;5071420;28;20080;-76
2023/03/11 11:18:05;;;;;;;4.53;1.27;;;;;;;5.88;67.68;101232.00;5074545;28;20045;-76
2023/03/11 11:20:33;;;;;;;4.53;1.10;;;;;;;5.93;67.21;101240.28;5073882;28;20490;-76
2023/03/11 11:23:02;;;;;;;1.75;1.13;;;;;;;5.97;66.01;101224.38;5073907;28;20041;-75
2023/03/11 11:25:28;;;;;;;7.10;0.80;;;;;;;6.03;66.00;101225.44;5073751;28;20099;-74
2023/03/11 11:28:16;;;;;;;2.80;1.20;;;;;;;6.10;66.98;101229.88;5071975;28;20052;-78
2023/03/11 11:31:18;;;;;;;7.05;1.17;;;;;;;6.09;66.35;101236.31;5072241;28;20059;-77
2023/03/11 11:33:49;;;;;;;;;;;;;;;6.07;67.44;101225.38;5074270;28;20052;-77
2023/03/11 11:36:17;;;;;;;2.80;1.00;;;;;;;6.06;65.17;101232.56;5074095;28;19978;-75
2023/03/11 11:38:43;;;;;;;5.43;1.05;;;;;;;6.05;64.27;101231.06;5073985;28;20533;-76
2023/03/11 11:41:17;;;;;;;7.75;1.17;;;;;;;6.16;65.30;101231.69;5072653;28;20055;-77